Terminal Aerodrome Forecast
Issued by NWS

Current Version | Previous Version | Text Only | Print | Product List | Glossary On
Versions: 1 2 3 4 5 6 7 8 9 10 11 12 13 14 15 16 17 18 19 20
000
FTUS46 KSEW 272300
TAFHQM
TAF
KHQM 272320Z 2800/2824 24012KT P6SM SCT007
      TEMPO 2800/2804 5SM BR BKN007
     FM280400 27010KT 5SM BR OVC007
     FM281200 VRB03KT 3SM BR OVC003
      TEMPO 2815/2819 3SM BR BKN005
     FM281900 28010KT P6SM SCT010=

USA.gov is the U.S. government's official web portal to all federal, state and local government web resources and services.